DLH1907 KMIA-EDDF
Flight info
| Callsign | DLH1907 |
|---|---|
| Flight time | N/A |
| Altitude | 35000 |
| Route | FOLZZ3 SNAGY/M084F350 M203 JNFOX DCT MUNEY M202 LOMPI/N0497F350 DCT SUPRY/M084F360 DCT 46N050W 48N040W 50N030W 52N020W DCT LIMRI DCT XETBO/N0481F370 DCT EVRIN DCT JETZI DCT AMFUL DCT CAWZE DCT SIRIC P2 DVR UL9 KONAN UL607 SPI T180 NIVNU T847 IMCOM IMCOM1B |
| Aircraft | A35K/H-SDE2E3GHIJ3J4J5LM1ORWXY/LB1D1 |
Departure
| Time | N/A |
|---|---|
| Airport | Miami International Airport (KMIA) |
Arrival
| Time | 2026-05-04 23:00 |
|---|---|
| Airport | Frankfurt Main Airport (EDDF) |
| Time | Latitude | Longitude | Altitude | Speed | Heading |
|---|---|---|---|---|---|
| 2026-05-04 16:48 | 41.54240 | -63.88677 | 37932 ft | 456 kts | 0° |
| 2026-05-04 16:49 | 41.59648 | -63.87448 | 36345 ft | 453 kts | 359° |
| 2026-05-04 16:49 | 41.65092 | -63.86128 | 36194 ft | 414 kts | 358° |
| 2026-05-04 16:50 | 41.70740 | -63.84788 | 35413 ft | 421 kts | 358° |
| 2026-05-04 16:50 | 41.76712 | -63.83395 | 35543 ft | 446 kts | 359° |
| 2026-05-04 16:51 | 41.82951 | -63.81923 | 35953 ft | 463 kts | 359° |
| 2026-05-04 16:51 | 41.86153 | -63.81165 | 36178 ft | 472 kts | 360° |
| 2026-05-04 16:51 | 41.92722 | -63.79605 | 36643 ft | 487 kts | 1° |
| 2026-05-04 16:52 | 41.99505 | -63.77988 | 36999 ft | 504 kts | 1° |
| 2026-05-04 16:52 | 42.03001 | -63.77153 | 37008 ft | 516 kts | 1° |
| 2026-05-04 16:53 | 42.10224 | -63.75420 | 37016 ft | 537 kts | 2° |
| 2026-05-04 16:54 | 42.24936 | -63.71844 | 36987 ft | 537 kts | 2° |
| 2026-05-04 16:55 | 42.46944 | -63.66495 | 36977 ft | 535 kts | 2° |
| 2026-05-04 16:56 | 42.65229 | -63.62055 | 36969 ft | 533 kts | 2° |
| 2026-05-04 16:57 | 42.76186 | -63.59397 | 36953 ft | 533 kts | 2° |
| 2026-05-04 16:58 | 42.90767 | -63.55864 | 36943 ft | 531 kts | 3° |
| 2026-05-04 17:00 | 43.12541 | -63.50595 | 36925 ft | 530 kts | 3° |
| 2026-05-04 17:01 | 43.30708 | -63.46206 | 36908 ft | 530 kts | 3° |
| 2026-05-04 17:02 | 43.45243 | -63.42700 | 36903 ft | 534 kts | 3° |
| 2026-05-04 17:03 | 43.56260 | -63.40041 | 36885 ft | 537 kts | 3° |
| 2026-05-04 17:03 | 43.67320 | -63.37371 | 36876 ft | 538 kts | 3° |
| 2026-05-04 17:04 | 43.82045 | -63.33474 | 36867 ft | 534 kts | 7° |
| 2026-05-04 17:05 | 43.88945 | -63.29900 | 36862 ft | 538 kts | 31° |
| 2026-05-04 17:05 | 43.93897 | -63.22069 | 36874 ft | 550 kts | 59° |
| 2026-05-04 17:06 | 43.99135 | -63.07827 | 36846 ft | 554 kts | 65° |
| 2026-05-04 17:07 | 44.03268 | -62.94811 | 36836 ft | 553 kts | 64° |
| 2026-05-04 17:07 | 44.06890 | -62.83350 | 36830 ft | 553 kts | 65° |
| 2026-05-04 17:08 | 44.11359 | -62.68601 | 36826 ft | 552 kts | 69° |
| 2026-05-04 17:09 | 44.13928 | -62.58526 | 36828 ft | 552 kts | 70° |
| 2026-05-04 17:09 | 44.16463 | -62.48443 | 36838 ft | 552 kts | 70° |
| 2026-05-04 17:10 | 44.22796 | -62.23344 | 36808 ft | 550 kts | 70° |
| 2026-05-04 17:11 | 44.24867 | -62.13103 | 36810 ft | 549 kts | 83° |
| 2026-05-04 17:12 | 44.25026 | -61.97130 | 36804 ft | 547 kts | 95° |
| 2026-05-04 17:13 | 44.24074 | -61.70735 | 36796 ft | 547 kts | 95° |
| 2026-05-04 17:14 | 44.23396 | -61.49509 | 36809 ft | 548 kts | 95° |
| 2026-05-04 17:15 | 44.22866 | -61.33576 | 36801 ft | 548 kts | 95° |
| 2026-05-04 17:15 | 44.22921 | -61.22943 | 36802 ft | 553 kts | 83° |
| 2026-05-04 17:16 | 44.24326 | -61.12387 | 36810 ft | 554 kts | 77° |
| 2026-05-04 17:17 | 44.28102 | -60.91559 | 36791 ft | 553 kts | 76° |
| 2026-05-04 17:18 | 44.31852 | -60.70723 | 36791 ft | 555 kts | 77° |
| 2026-05-04 17:19 | 44.35522 | -60.49815 | 36780 ft | 554 kts | 77° |
| 2026-05-04 17:20 | 44.39156 | -60.28903 | 36755 ft | 554 kts | 77° |
| 2026-05-04 17:20 | 44.41858 | -60.13192 | 36766 ft | 554 kts | 77° |
| 2026-05-04 17:21 | 44.45427 | -59.92219 | 36764 ft | 554 kts | 77° |
| 2026-05-04 17:22 | 44.47198 | -59.81721 | 36772 ft | 554 kts | 77° |
| 2026-05-04 17:23 | 44.50696 | -59.60800 | 36772 ft | 554 kts | 78° |
| 2026-05-04 17:24 | 44.53304 | -59.45028 | 36764 ft | 554 kts | 78° |
| 2026-05-04 17:25 | 44.56751 | -59.23974 | 36756 ft | 554 kts | 78° |
| 2026-05-04 17:26 | 44.60160 | -59.02862 | 36756 ft | 556 kts | 78° |
| 2026-05-04 17:27 | 44.64375 | -58.76380 | 36755 ft | 555 kts | 78° |
| 2026-05-04 17:28 | 44.67699 | -58.55222 | 36754 ft | 557 kts | 79° |
| 2026-05-04 17:29 | 44.72632 | -58.23298 | 36746 ft | 555 kts | 79° |
| 2026-05-04 17:31 | 44.76660 | -57.96740 | 36747 ft | 557 kts | 79° |
| 2026-05-04 17:32 | 44.80634 | -57.70098 | 36738 ft | 555 kts | 80° |
| 2026-05-04 17:33 | 44.83754 | -57.48864 | 36736 ft | 555 kts | 80° |
| 2026-05-04 17:34 | 44.86592 | -57.29275 | 36738 ft | 554 kts | 80° |
| 2026-05-04 17:35 | 44.90387 | -57.02693 | 36728 ft | 553 kts | 80° |
| 2026-05-04 17:36 | 44.91888 | -56.92052 | 36732 ft | 554 kts | 81° |
| 2026-05-04 17:36 | 44.93382 | -56.81379 | 36724 ft | 554 kts | 81° |
| 2026-05-04 17:37 | 44.94855 | -56.70787 | 36731 ft | 553 kts | 81° |
| 2026-05-04 17:37 | 44.96327 | -56.60120 | 36727 ft | 553 kts | 81° |
| 2026-05-04 17:38 | 44.97788 | -56.49449 | 36730 ft | 553 kts | 81° |
| 2026-05-04 17:38 | 44.99240 | -56.38776 | 36727 ft | 553 kts | 81° |
| 2026-05-04 17:39 | 45.01401 | -56.22744 | 36727 ft | 554 kts | 82° |
| 2026-05-04 17:39 | 45.02828 | -56.12052 | 36728 ft | 555 kts | 82° |
| 2026-05-04 17:40 | 45.04251 | -56.01286 | 36731 ft | 559 kts | 82° |
| 2026-05-04 17:40 | 45.05676 | -55.90425 | 36739 ft | 564 kts | 82° |
| 2026-05-04 17:41 | 45.07098 | -55.79491 | 36727 ft | 566 kts | 82° |
| 2026-05-04 17:41 | 45.08519 | -55.68497 | 36730 ft | 569 kts | 82° |
| 2026-05-04 17:42 | 45.09938 | -55.57442 | 36731 ft | 572 kts | 82° |
| 2026-05-04 17:42 | 45.11345 | -55.46360 | 36722 ft | 573 kts | 82° |
| 2026-05-04 17:43 | 45.12748 | -55.35254 | 36736 ft | 572 kts | 83° |
| 2026-05-04 17:43 | 45.14131 | -55.24227 | 36724 ft | 572 kts | 83° |
| 2026-05-04 17:44 | 45.15515 | -55.13115 | 36740 ft | 574 kts | 83° |
| 2026-05-04 17:44 | 45.16889 | -55.01972 | 36733 ft | 574 kts | 83° |
| 2026-05-04 17:45 | 45.18250 | -54.90819 | 36740 ft | 574 kts | 83° |
| 2026-05-04 17:45 | 45.19600 | -54.79674 | 36736 ft | 573 kts | 83° |
| 2026-05-04 17:46 | 45.20941 | -54.68530 | 36731 ft | 573 kts | 83° |
| 2026-05-04 17:46 | 45.22271 | -54.57363 | 36741 ft | 575 kts | 83° |
| 2026-05-04 17:47 | 45.23590 | -54.46184 | 36749 ft | 575 kts | 83° |
| 2026-05-04 17:47 | 45.24902 | -54.34993 | 36749 ft | 575 kts | 84° |
| 2026-05-04 17:48 | 45.26202 | -54.23804 | 36752 ft | 575 kts | 84° |
| 2026-05-04 17:48 | 45.27488 | -54.12616 | 36742 ft | 575 kts | 84° |
| 2026-05-04 17:49 | 45.28767 | -54.01404 | 36766 ft | 576 kts | 84° |
| 2026-05-04 17:49 | 45.30036 | -53.90167 | 36767 ft | 576 kts | 84° |
| 2026-05-04 17:50 | 45.31292 | -53.78949 | 36769 ft | 575 kts | 84° |
| 2026-05-04 17:50 | 45.32538 | -53.67724 | 36767 ft | 575 kts | 84° |
| 2026-05-04 17:51 | 45.33769 | -53.56507 | 36747 ft | 574 kts | 84° |
| 2026-05-04 17:51 | 45.34991 | -53.45278 | 36783 ft | 575 kts | 85° |
| 2026-05-04 17:52 | 45.36203 | -53.34041 | 36791 ft | 575 kts | 85° |
| 2026-05-04 17:52 | 45.37405 | -53.22808 | 36783 ft | 574 kts | 85° |
| 2026-05-04 17:53 | 45.38591 | -53.11587 | 36794 ft | 574 kts | 85° |
| 2026-05-04 17:53 | 45.39767 | -53.00360 | 36743 ft | 574 kts | 85° |
| 2026-05-04 17:54 | 45.40935 | -52.89121 | 36804 ft | 575 kts | 85° |
| 2026-05-04 17:54 | 45.42089 | -52.77867 | 36798 ft | 574 kts | 85° |
| 2026-05-04 17:55 | 45.43234 | -52.66621 | 36802 ft | 574 kts | 85° |
| 2026-05-04 17:55 | 45.44366 | -52.55373 | 36802 ft | 574 kts | 85° |
| 2026-05-04 17:56 | 45.45487 | -52.44118 | 36803 ft | 574 kts | 86° |
| 2026-05-04 17:56 | 45.46597 | -52.32874 | 36814 ft | 574 kts | 86° |
| 2026-05-04 17:57 | 45.47697 | -52.21621 | 36807 ft | 573 kts | 86° |
| 2026-05-04 17:57 | 45.48784 | -52.10358 | 36807 ft | 573 kts | 86° |
| 2026-05-04 17:58 | 45.50198 | -51.99158 | 36806 ft | 578 kts | 76° |
| 2026-05-04 17:58 | 45.52762 | -51.88281 | 36817 ft | 580 kts | 73° |
| 2026-05-04 17:59 | 45.55546 | -51.77494 | 36815 ft | 579 kts | 72° |
| 2026-05-04 18:00 | 45.59764 | -51.61335 | 36821 ft | 579 kts | 72° |
| 2026-05-04 18:00 | 45.62541 | -51.50538 | 36823 ft | 578 kts | 73° |
| 2026-05-04 18:01 | 45.65273 | -51.39820 | 36821 ft | 577 kts | 73° |
| 2026-05-04 18:01 | 45.68008 | -51.29038 | 36823 ft | 577 kts | 73° |
| 2026-05-04 18:02 | 45.72089 | -51.12855 | 36823 ft | 576 kts | 73° |
| 2026-05-04 18:02 | 45.74793 | -51.02082 | 36823 ft | 574 kts | 73° |
| 2026-05-04 18:03 | 45.77479 | -50.91316 | 36819 ft | 574 kts | 73° |
| 2026-05-04 18:03 | 45.80158 | -50.80524 | 36829 ft | 576 kts | 73° |
| 2026-05-04 18:04 | 45.82835 | -50.69695 | 36829 ft | 575 kts | 74° |
| 2026-05-04 18:05 | 45.86822 | -50.53479 | 36840 ft | 575 kts | 74° |
| 2026-05-04 18:05 | 45.89466 | -50.42652 | 36840 ft | 575 kts | 74° |
| 2026-05-04 18:06 | 45.93410 | -50.26418 | 36849 ft | 573 kts | 75° |
| 2026-05-04 18:06 | 45.96023 | -50.15599 | 36845 ft | 573 kts | 75° |
| 2026-05-04 18:07 | 45.98624 | -50.04770 | 36843 ft | 573 kts | 75° |
| 2026-05-04 18:07 | 46.01244 | -49.93922 | 36848 ft | 576 kts | 74° |
| 2026-05-04 18:08 | 46.03972 | -49.83080 | 36857 ft | 576 kts | 73° |
| 2026-05-04 18:08 | 46.06710 | -49.72246 | 36855 ft | 576 kts | 74° |
| 2026-05-04 18:09 | 46.12117 | -49.50530 | 36859 ft | 575 kts | 74° |
| 2026-05-04 18:10 | 46.14791 | -49.39673 | 36858 ft | 575 kts | 75° |
| 2026-05-04 18:10 | 46.17454 | -49.28807 | 36858 ft | 574 kts | 75° |
| 2026-05-04 18:11 | 46.20107 | -49.17938 | 36837 ft | 574 kts | 75° |
| 2026-05-04 18:11 | 46.22753 | -49.07036 | 36879 ft | 576 kts | 75° |
| 2026-05-04 18:12 | 46.25377 | -48.96172 | 36866 ft | 577 kts | 75° |
| 2026-05-04 18:12 | 46.28010 | -48.85216 | 36878 ft | 577 kts | 75° |
| 2026-05-04 18:13 | 46.30632 | -48.74261 | 36878 ft | 576 kts | 75° |
| 2026-05-04 18:14 | 46.34540 | -48.57826 | 36875 ft | 576 kts | 75° |
| 2026-05-04 18:14 | 46.37128 | -48.46867 | 36882 ft | 576 kts | 76° |
| 2026-05-04 18:15 | 46.42258 | -48.24995 | 36861 ft | 571 kts | 76° |
| 2026-05-04 18:16 | 46.44800 | -48.14070 | 36884 ft | 573 kts | 76° |
| 2026-05-04 18:16 | 46.47338 | -48.03114 | 36876 ft | 572 kts | 76° |
| 2026-05-04 18:17 | 46.51109 | -47.86739 | 36894 ft | 569 kts | 76° |
| 2026-05-04 18:18 | 46.54844 | -47.70384 | 36896 ft | 569 kts | 77° |
| 2026-05-04 18:18 | 46.57317 | -47.59485 | 36898 ft | 567 kts | 77° |
| 2026-05-04 18:19 | 46.60987 | -47.43207 | 36897 ft | 564 kts | 77° |
| 2026-05-04 18:19 | 46.63008 | -47.34190 | 36854 ft | 564 kts | 77° |
| 2026-05-04 18:20 | 46.65430 | -47.23338 | 36879 ft | 563 kts | 77° |
| 2026-05-04 18:20 | 46.67832 | -47.12517 | 36894 ft | 561 kts | 77° |
| 2026-05-04 18:21 | 46.70217 | -47.01714 | 36899 ft | 560 kts | 77° |
| 2026-05-04 18:21 | 46.72592 | -46.90908 | 36904 ft | 560 kts | 78° |
| 2026-05-04 18:22 | 46.74953 | -46.80103 | 36902 ft | 558 kts | 78° |
| 2026-05-04 18:22 | 46.77293 | -46.69341 | 36906 ft | 556 kts | 78° |
| 2026-05-04 18:23 | 46.79621 | -46.58582 | 36903 ft | 556 kts | 78° |
| 2026-05-04 18:23 | 46.81933 | -46.47826 | 36915 ft | 556 kts | 78° |
| 2026-05-04 18:24 | 46.84236 | -46.37069 | 36903 ft | 554 kts | 78° |
| 2026-05-04 18:24 | 46.86524 | -46.26325 | 36914 ft | 554 kts | 78° |
| 2026-05-04 18:25 | 46.88803 | -46.15574 | 36917 ft | 553 kts | 78° |
| 2026-05-04 18:25 | 46.91069 | -46.04819 | 36920 ft | 553 kts | 78° |
| 2026-05-04 18:26 | 46.93323 | -45.94062 | 36923 ft | 554 kts | 78° |
| 2026-05-04 18:26 | 46.95573 | -45.83277 | 37041 ft | 554 kts | 78° |
| 2026-05-04 18:27 | 46.96692 | -45.77890 | 37143 ft | 553 kts | 78° |
| 2026-05-04 18:27 | 46.97810 | -45.72499 | 37225 ft | 553 kts | 78° |
| 2026-05-04 18:27 | 47.00035 | -45.61725 | 37343 ft | 552 kts | 78° |
| 2026-05-04 18:28 | 47.01140 | -45.56350 | 37487 ft | 550 kts | 78° |
| 2026-05-04 18:28 | 47.02239 | -45.50989 | 37575 ft | 549 kts | 78° |
| 2026-05-04 18:28 | 47.04429 | -45.40255 | 37603 ft | 550 kts | 78° |
| 2026-05-04 18:29 | 47.06611 | -45.29502 | 37736 ft | 550 kts | 78° |
| 2026-05-04 18:29 | 47.08787 | -45.18750 | 37876 ft | 548 kts | 78° |
| 2026-05-04 18:30 | 47.10939 | -45.08049 | 38066 ft | 547 kts | 78° |
| 2026-05-04 18:30 | 47.12010 | -45.02688 | 38111 ft | 547 kts | 78° |
| 2026-05-04 18:31 | 47.14145 | -44.91969 | 38214 ft | 547 kts | 78° |
| 2026-05-04 18:31 | 47.16254 | -44.81315 | 38310 ft | 547 kts | 78° |
| 2026-05-04 18:32 | 47.18365 | -44.70611 | 38503 ft | 543 kts | 78° |
| 2026-05-04 18:32 | 47.20459 | -44.59938 | 38554 ft | 544 kts | 79° |
| 2026-05-04 18:33 | 47.22540 | -44.49245 | 38620 ft | 544 kts | 79° |
| 2026-05-04 18:33 | 47.24609 | -44.38561 | 38617 ft | 543 kts | 78° |
| 2026-05-04 18:34 | 47.26661 | -44.27918 | 38763 ft | 539 kts | 78° |
| 2026-05-04 18:34 | 47.28699 | -44.17293 | 38803 ft | 539 kts | 79° |
| 2026-05-04 18:35 | 47.30722 | -44.06661 | 38826 ft | 539 kts | 79° |
| 2026-05-04 18:35 | 47.32735 | -43.96023 | 38840 ft | 539 kts | 79° |
| 2026-05-04 18:36 | 47.34733 | -43.85418 | 38970 ft | 536 kts | 79° |
| 2026-05-04 18:36 | 47.36718 | -43.74828 | 38982 ft | 536 kts | 79° |
| 2026-05-04 18:37 | 47.38691 | -43.64219 | 38979 ft | 536 kts | 79° |
| 2026-05-04 18:37 | 47.40655 | -43.53617 | 38987 ft | 536 kts | 79° |
| 2026-05-04 18:38 | 47.42607 | -43.43017 | 38997 ft | 534 kts | 79° |
| 2026-05-04 18:38 | 47.44549 | -43.32415 | 39009 ft | 535 kts | 79° |
| 2026-05-04 18:39 | 47.46481 | -43.21805 | 39018 ft | 535 kts | 79° |
| 2026-05-04 18:39 | 47.48403 | -43.11181 | 39021 ft | 535 kts | 79° |
| 2026-05-04 18:40 | 47.50318 | -43.00538 | 39025 ft | 536 kts | 78° |
| 2026-05-04 18:40 | 47.52224 | -42.89873 | 39036 ft | 537 kts | 79° |
| 2026-05-04 18:41 | 47.54121 | -42.79189 | 39037 ft | 537 kts | 79° |
| 2026-05-04 18:41 | 47.56000 | -42.68556 | 39038 ft | 537 kts | 79° |
| 2026-05-04 18:42 | 47.57880 | -42.57865 | 39054 ft | 536 kts | 78° |
| 2026-05-04 18:42 | 47.59747 | -42.47166 | 39066 ft | 536 kts | 78° |
| 2026-05-04 18:43 | 47.61604 | -42.36469 | 39070 ft | 536 kts | 78° |
| 2026-05-04 18:43 | 47.63452 | -42.25760 | 39079 ft | 536 kts | 78° |
| 2026-05-04 18:44 | 47.65282 | -42.15064 | 39079 ft | 535 kts | 78° |
| 2026-05-04 18:44 | 47.67105 | -42.04375 | 39092 ft | 534 kts | 78° |
| 2026-05-04 18:45 | 47.68914 | -41.93700 | 39093 ft | 534 kts | 78° |
| 2026-05-04 18:45 | 47.70714 | -41.83005 | 39109 ft | 534 kts | 78° |
| 2026-05-04 18:46 | 47.72502 | -41.72310 | 39115 ft | 534 kts | 78° |
| 2026-05-04 18:46 | 47.74279 | -41.61614 | 39111 ft | 534 kts | 79° |
| 2026-05-04 18:47 | 47.76048 | -41.50903 | 39117 ft | 534 kts | 79° |
| 2026-05-04 18:47 | 47.77806 | -41.40189 | 39121 ft | 534 kts | 78° |
| 2026-05-04 18:48 | 47.79556 | -41.29455 | 39128 ft | 534 kts | 78° |
| 2026-05-04 18:48 | 47.81300 | -41.18701 | 39134 ft | 535 kts | 78° |
| 2026-05-04 18:49 | 47.83033 | -41.07940 | 39140 ft | 535 kts | 78° |
| 2026-05-04 18:49 | 47.84755 | -40.97167 | 39151 ft | 535 kts | 78° |
| 2026-05-04 18:50 | 47.86465 | -40.86400 | 39153 ft | 534 kts | 77° |
| 2026-05-04 18:50 | 47.88162 | -40.75656 | 39154 ft | 533 kts | 78° |
| 2026-05-04 18:51 | 47.89848 | -40.64905 | 39167 ft | 533 kts | 78° |
| 2026-05-04 18:51 | 47.91524 | -40.54154 | 39168 ft | 533 kts | 78° |
| 2026-05-04 18:52 | 47.93188 | -40.43394 | 39168 ft | 532 kts | 77° |
| 2026-05-04 18:52 | 47.94837 | -40.32661 | 39181 ft | 530 kts | 77° |
| 2026-05-04 18:53 | 47.96474 | -40.21945 | 39188 ft | 530 kts | 77° |
| 2026-05-04 18:53 | 47.98100 | -40.11227 | 39199 ft | 529 kts | 77° |
| 2026-05-04 18:54 | 47.99809 | -40.00530 | 39195 ft | 530 kts | 71° |
| 2026-05-04 18:54 | 48.02247 | -39.90136 | 39201 ft | 531 kts | 69° |
| 2026-05-04 18:55 | 48.04817 | -39.79860 | 39210 ft | 532 kts | 69° |
| 2026-05-04 18:55 | 48.08724 | -39.64330 | 39220 ft | 533 kts | 68° |
| 2026-05-04 18:56 | 48.11318 | -39.53919 | 39224 ft | 535 kts | 68° |
| 2026-05-04 18:56 | 48.13908 | -39.43442 | 39226 ft | 537 kts | 68° |
| 2026-05-04 18:57 | 48.16487 | -39.32937 | 39234 ft | 539 kts | 68° |
| 2026-05-04 18:57 | 48.19067 | -39.22380 | 39233 ft | 540 kts | 68° |
| 2026-05-04 18:58 | 48.21643 | -39.11804 | 39234 ft | 541 kts | 68° |
| 2026-05-04 18:58 | 48.24210 | -39.01208 | 39246 ft | 540 kts | 68° |
| 2026-05-04 18:59 | 48.26764 | -38.90620 | 39247 ft | 539 kts | 68° |
| 2026-05-04 18:59 | 48.29304 | -38.80039 | 39247 ft | 537 kts | 67° |
| 2026-05-04 19:00 | 48.31820 | -38.69505 | 39258 ft | 536 kts | 67° |
| 2026-05-04 19:00 | 48.34328 | -38.58964 | 39260 ft | 536 kts | 67° |
| 2026-05-04 19:01 | 48.36823 | -38.48416 | 39272 ft | 535 kts | 67° |
| 2026-05-04 19:01 | 48.39303 | -38.37877 | 39273 ft | 534 kts | 67° |
| 2026-05-04 19:02 | 48.41775 | -38.27329 | 39273 ft | 534 kts | 67° |
| 2026-05-04 19:02 | 48.44237 | -38.16781 | 39276 ft | 534 kts | 67° |
| 2026-05-04 19:03 | 48.46690 | -38.06212 | 39292 ft | 534 kts | 67° |
| 2026-05-04 19:03 | 48.49132 | -37.95636 | 39287 ft | 535 kts | 67° |
| 2026-05-04 19:04 | 48.51566 | -37.85035 | 39292 ft | 535 kts | 67° |
| 2026-05-04 19:04 | 48.53581 | -37.76227 | 39295 ft | 535 kts | 67° |
| 2026-05-04 19:05 | 48.55999 | -37.65608 | 39303 ft | 535 kts | 67° |
| 2026-05-04 19:05 | 48.58405 | -37.54985 | 39306 ft | 535 kts | 67° |
| 2026-05-04 19:06 | 48.60804 | -37.44346 | 39306 ft | 535 kts | 68° |
| 2026-05-04 19:06 | 48.63192 | -37.33697 | 39304 ft | 535 kts | 67° |
| 2026-05-04 19:07 | 48.65566 | -37.23052 | 39317 ft | 534 kts | 67° |
| 2026-05-04 19:07 | 48.67931 | -37.12408 | 39316 ft | 534 kts | 67° |
| 2026-05-04 19:08 | 48.70287 | -37.01751 | 39320 ft | 534 kts | 67° |
| 2026-05-04 19:08 | 48.72630 | -36.91087 | 39321 ft | 534 kts | 67° |
| 2026-05-04 19:09 | 48.74962 | -36.80412 | 39326 ft | 533 kts | 67° |
| 2026-05-04 19:09 | 48.77282 | -36.69744 | 39329 ft | 533 kts | 67° |
| 2026-05-04 19:10 | 48.79206 | -36.60865 | 39336 ft | 533 kts | 67° |
| 2026-05-04 19:10 | 48.81882 | -36.48448 | 39319 ft | 533 kts | 67° |
| 2026-05-04 19:11 | 48.84173 | -36.37751 | 39334 ft | 533 kts | 67° |
| 2026-05-04 19:11 | 48.86452 | -36.27046 | 39340 ft | 533 kts | 67° |
| 2026-05-04 19:12 | 48.89852 | -36.10973 | 39344 ft | 533 kts | 67° |
| 2026-05-04 19:13 | 48.92106 | -36.00262 | 39345 ft | 532 kts | 67° |
| 2026-05-04 19:13 | 48.94341 | -35.89564 | 39347 ft | 530 kts | 67° |
| 2026-05-04 19:14 | 48.96562 | -35.78885 | 39347 ft | 530 kts | 67° |
| 2026-05-04 19:14 | 48.98775 | -35.68195 | 39345 ft | 529 kts | 67° |
| 2026-05-04 19:15 | 49.00975 | -35.57498 | 39360 ft | 527 kts | 67° |
| 2026-05-04 19:15 | 49.03141 | -35.46902 | 39358 ft | 523 kts | 67° |
| 2026-05-04 19:16 | 49.05293 | -35.36335 | 39359 ft | 522 kts | 67° |
| 2026-05-04 19:16 | 49.07436 | -35.25773 | 39359 ft | 522 kts | 67° |
| 2026-05-04 19:17 | 49.09566 | -35.15187 | 39360 ft | 519 kts | 67° |
| 2026-05-04 19:17 | 49.11667 | -35.04687 | 39362 ft | 517 kts | 67° |
| 2026-05-04 19:18 | 49.13758 | -34.94195 | 39365 ft | 517 kts | 67° |
| 2026-05-04 19:18 | 49.15843 | -34.83690 | 39370 ft | 517 kts | 67° |
| 2026-05-04 19:19 | 49.17917 | -34.73174 | 39366 ft | 516 kts | 67° |
| 2026-05-04 19:19 | 49.19977 | -34.62672 | 39372 ft | 516 kts | 67° |
| 2026-05-04 19:20 | 49.22027 | -34.52157 | 39375 ft | 516 kts | 67° |
| 2026-05-04 19:20 | 49.24065 | -34.41636 | 39373 ft | 516 kts | 67° |
| 2026-05-04 19:21 | 49.26100 | -34.31091 | 39374 ft | 516 kts | 67° |
| 2026-05-04 19:21 | 49.28123 | -34.20548 | 39381 ft | 516 kts | 67° |
| 2026-05-04 19:22 | 49.30135 | -34.09992 | 39379 ft | 516 kts | 68° |
| 2026-05-04 19:22 | 49.32136 | -33.99441 | 39381 ft | 516 kts | 68° |
| 2026-05-04 19:23 | 49.34117 | -33.88937 | 39381 ft | 516 kts | 67° |
| 2026-05-04 19:23 | 49.36101 | -33.78357 | 39387 ft | 516 kts | 68° |
| 2026-05-04 19:24 | 49.38074 | -33.67771 | 39386 ft | 515 kts | 68° |
| 2026-05-04 19:24 | 49.40035 | -33.57200 | 39389 ft | 515 kts | 68° |
| 2026-05-04 19:25 | 49.41984 | -33.46629 | 39392 ft | 515 kts | 68° |
| 2026-05-04 19:25 | 49.43926 | -33.36036 | 39394 ft | 515 kts | 68° |
| 2026-05-04 19:26 | 49.45857 | -33.25430 | 39397 ft | 515 kts | 68° |
| 2026-05-04 19:26 | 49.47779 | -33.14821 | 39397 ft | 515 kts | 68° |
| 2026-05-04 19:27 | 49.49692 | -33.04205 | 39403 ft | 515 kts | 68° |
| 2026-05-04 19:27 | 49.51596 | -32.93572 | 39400 ft | 515 kts | 68° |
| 2026-05-04 19:28 | 49.53488 | -32.82941 | 39395 ft | 515 kts | 69° |
| 2026-05-04 19:28 | 49.55369 | -32.72302 | 39400 ft | 515 kts | 69° |
| 2026-05-04 19:29 | 49.57244 | -32.61635 | 39411 ft | 515 kts | 69° |
| 2026-05-04 19:29 | 49.59108 | -32.50982 | 39405 ft | 515 kts | 69° |
| 2026-05-04 19:30 | 49.60965 | -32.40311 | 39407 ft | 515 kts | 69° |
| 2026-05-04 19:30 | 49.62809 | -32.29634 | 39408 ft | 516 kts | 69° |
| 2026-05-04 19:31 | 49.64645 | -32.18932 | 39415 ft | 516 kts | 69° |
| 2026-05-04 19:31 | 49.66473 | -32.08220 | 39407 ft | 516 kts | 70° |
| 2026-05-04 19:32 | 49.68293 | -31.97484 | 39413 ft | 517 kts | 70° |
| 2026-05-04 19:32 | 49.70102 | -31.86753 | 39413 ft | 516 kts | 70° |
| 2026-05-04 19:33 | 49.71900 | -31.76015 | 39419 ft | 516 kts | 70° |
| 2026-05-04 19:33 | 49.73691 | -31.65252 | 39414 ft | 517 kts | 70° |
| 2026-05-04 19:34 | 49.75475 | -31.54480 | 39417 ft | 517 kts | 70° |
| 2026-05-04 19:34 | 49.77249 | -31.43690 | 39423 ft | 517 kts | 71° |
| 2026-05-04 19:35 | 49.79012 | -31.32897 | 39438 ft | 518 kts | 71° |
| 2026-05-04 19:35 | 49.80756 | -31.22155 | 39421 ft | 518 kts | 71° |
| 2026-05-04 19:36 | 49.82500 | -31.11324 | 39425 ft | 518 kts | 71° |
| 2026-05-04 19:36 | 49.84247 | -31.00418 | 39430 ft | 519 kts | 71° |
| 2026-05-04 19:37 | 49.85961 | -30.89642 | 39449 ft | 519 kts | 72° |
| 2026-05-04 19:37 | 49.87679 | -30.78767 | 39432 ft | 519 kts | 72° |
| 2026-05-04 19:38 | 49.89385 | -30.67893 | 39433 ft | 519 kts | 72° |
| 2026-05-04 19:38 | 49.91085 | -30.56992 | 39435 ft | 520 kts | 72° |
| 2026-05-04 19:39 | 49.92776 | -30.46091 | 39452 ft | 520 kts | 72° |
| 2026-05-04 19:39 | 49.94457 | -30.35180 | 39433 ft | 520 kts | 72° |
| 2026-05-04 19:40 | 49.96127 | -30.24250 | 39437 ft | 520 kts | 73° |
| 2026-05-04 19:40 | 49.97787 | -30.13308 | 39438 ft | 520 kts | 73° |
| 2026-05-04 19:41 | 49.99460 | -30.02380 | 39452 ft | 519 kts | 70° |
| 2026-05-04 19:41 | 50.01831 | -29.91855 | 39438 ft | 515 kts | 65° |
| 2026-05-04 19:42 | 50.04413 | -29.81465 | 39438 ft | 515 kts | 65° |
| 2026-05-04 19:42 | 50.07026 | -29.71106 | 39438 ft | 515 kts | 65° |
| 2026-05-04 19:43 | 50.09629 | -29.60719 | 39447 ft | 515 kts | 65° |
| 2026-05-04 19:43 | 50.12212 | -29.50322 | 39438 ft | 515 kts | 65° |
| 2026-05-04 19:44 | 50.14782 | -29.39903 | 39438 ft | 515 kts | 65° |
| 2026-05-04 19:44 | 50.17323 | -29.29554 | 39434 ft | 515 kts | 65° |
| 2026-05-04 19:45 | 50.19873 | -29.19117 | 39438 ft | 515 kts | 65° |
| 2026-05-04 19:45 | 50.22415 | -29.08675 | 39437 ft | 515 kts | 66° |
| 2026-05-04 19:46 | 50.24949 | -28.98207 | 39439 ft | 515 kts | 66° |
| 2026-05-04 19:46 | 50.27469 | -28.87747 | 39437 ft | 515 kts | 66° |
| 2026-05-04 19:47 | 50.29984 | -28.77265 | 39451 ft | 515 kts | 66° |
| 2026-05-04 19:47 | 50.32491 | -28.66764 | 39435 ft | 515 kts | 66° |
| 2026-05-04 19:48 | 50.34985 | -28.56263 | 39448 ft | 515 kts | 66° |
| 2026-05-04 19:48 | 50.37473 | -28.45737 | 39432 ft | 515 kts | 66° |
| 2026-05-04 19:49 | 50.39950 | -28.35208 | 39445 ft | 515 kts | 66° |
| 2026-05-04 19:49 | 50.42416 | -28.24674 | 39439 ft | 515 kts | 67° |
| 2026-05-04 19:50 | 50.44872 | -28.14133 | 39440 ft | 515 kts | 67° |
| 2026-05-04 19:50 | 50.47320 | -28.03578 | 39440 ft | 515 kts | 67° |
| 2026-05-04 19:51 | 50.49756 | -27.93012 | 39449 ft | 515 kts | 67° |
| 2026-05-04 19:51 | 50.51773 | -27.84232 | 39441 ft | 514 kts | 67° |
| 2026-05-04 19:52 | 50.54189 | -27.73662 | 39443 ft | 514 kts | 67° |
| 2026-05-04 19:52 | 50.56988 | -27.61346 | 39441 ft | 514 kts | 68° |
| 2026-05-04 19:53 | 50.58997 | -27.52463 | 39446 ft | 514 kts | 68° |
| 2026-05-04 19:53 | 50.61384 | -27.41857 | 39437 ft | 514 kts | 68° |
| 2026-05-04 19:54 | 50.63766 | -27.31234 | 39440 ft | 514 kts | 68° |
| 2026-05-04 19:54 | 50.66134 | -27.20604 | 39440 ft | 514 kts | 68° |
| 2026-05-04 19:55 | 50.68495 | -27.09954 | 39446 ft | 515 kts | 68° |
| 2026-05-04 19:55 | 50.70849 | -26.99294 | 39439 ft | 515 kts | 68° |
| 2026-05-04 19:56 | 50.73192 | -26.88620 | 39441 ft | 515 kts | 68° |
| 2026-05-04 19:56 | 50.75508 | -26.78013 | 39442 ft | 515 kts | 68° |
| 2026-05-04 19:57 | 50.77832 | -26.67313 | 39454 ft | 515 kts | 69° |
| 2026-05-04 19:57 | 50.80149 | -26.56600 | 39441 ft | 515 kts | 69° |
| 2026-05-04 19:58 | 50.82470 | -26.45799 | 39434 ft | 515 kts | 69° |
| 2026-05-04 19:58 | 50.84750 | -26.35128 | 39430 ft | 515 kts | 69° |
| 2026-05-04 19:59 | 50.87038 | -26.24370 | 39443 ft | 516 kts | 69° |
| 2026-05-04 19:59 | 50.89316 | -26.13614 | 39437 ft | 516 kts | 69° |
| 2026-05-04 20:00 | 50.91587 | -26.02828 | 39433 ft | 516 kts | 69° |
| 2026-05-04 20:00 | 50.93843 | -25.92049 | 39432 ft | 516 kts | 69° |
| 2026-05-04 20:01 | 50.96091 | -25.81249 | 39437 ft | 516 kts | 70° |
| 2026-05-04 20:01 | 50.98331 | -25.70435 | 39428 ft | 516 kts | 70° |
| 2026-05-04 20:02 | 51.00558 | -25.59617 | 39419 ft | 516 kts | 70° |
| 2026-05-04 20:02 | 51.02775 | -25.48789 | 39423 ft | 516 kts | 70° |
| 2026-05-04 20:03 | 51.04986 | -25.37936 | 39427 ft | 516 kts | 70° |
| 2026-05-04 20:03 | 51.07182 | -25.27093 | 39419 ft | 515 kts | 70° |
| 2026-05-04 20:04 | 51.09369 | -25.16243 | 39433 ft | 515 kts | 70° |
| 2026-05-04 20:04 | 51.11547 | -25.05373 | 39430 ft | 515 kts | 70° |
| 2026-05-04 20:05 | 51.13714 | -24.94495 | 39416 ft | 515 kts | 70° |
| 2026-05-04 20:05 | 51.15874 | -24.83607 | 39419 ft | 515 kts | 70° |
| 2026-05-04 20:06 | 51.18020 | -24.72719 | 39415 ft | 515 kts | 70° |
| 2026-05-04 20:06 | 51.20158 | -24.61805 | 39417 ft | 515 kts | 71° |
| 2026-05-04 20:07 | 51.22285 | -24.50891 | 39419 ft | 516 kts | 71° |
| 2026-05-04 20:07 | 51.24400 | -24.39966 | 39413 ft | 515 kts | 71° |
| 2026-05-04 20:08 | 51.26506 | -24.29037 | 39413 ft | 515 kts | 71° |
| 2026-05-04 20:08 | 51.28602 | -24.18098 | 39413 ft | 515 kts | 71° |
| 2026-05-04 20:09 | 51.30683 | -24.07153 | 39418 ft | 515 kts | 71° |
| 2026-05-04 20:09 | 51.32756 | -23.96194 | 39411 ft | 514 kts | 71° |
| 2026-05-04 20:10 | 51.34817 | -23.85245 | 39411 ft | 514 kts | 71° |
| 2026-05-04 20:10 | 51.36865 | -23.74291 | 39411 ft | 514 kts | 71° |
| 2026-05-04 20:11 | 51.38906 | -23.63323 | 39407 ft | 514 kts | 71° |
| 2026-05-04 20:11 | 51.40935 | -23.52350 | 39408 ft | 514 kts | 71° |
| 2026-05-04 20:12 | 51.42951 | -23.41379 | 39400 ft | 513 kts | 71° |
| 2026-05-04 20:12 | 51.44958 | -23.30403 | 39400 ft | 513 kts | 71° |
| 2026-05-04 20:13 | 51.46953 | -23.19411 | 39400 ft | 513 kts | 71° |
| 2026-05-04 20:13 | 51.48935 | -23.08421 | 39397 ft | 513 kts | 72° |
| 2026-05-04 20:14 | 51.50909 | -22.97420 | 39398 ft | 513 kts | 72° |
| 2026-05-04 20:14 | 51.52870 | -22.86423 | 39397 ft | 512 kts | 72° |
| 2026-05-04 20:15 | 51.54823 | -22.75411 | 39400 ft | 512 kts | 72° |
| 2026-05-04 20:15 | 51.56764 | -22.64389 | 39395 ft | 512 kts | 72° |
| 2026-05-04 20:16 | 51.58691 | -22.53380 | 39389 ft | 512 kts | 72° |
| 2026-05-04 20:16 | 51.60609 | -22.42357 | 39389 ft | 512 kts | 72° |
| 2026-05-04 20:17 | 51.62515 | -22.31327 | 39389 ft | 512 kts | 72° |
| 2026-05-04 20:17 | 51.64411 | -22.20290 | 39388 ft | 511 kts | 72° |
| 2026-05-04 20:18 | 51.66296 | -22.09252 | 39385 ft | 511 kts | 72° |
| 2026-05-04 20:18 | 51.68170 | -21.98205 | 39379 ft | 511 kts | 72° |
| 2026-05-04 20:19 | 51.70033 | -21.87146 | 39381 ft | 511 kts | 72° |
| 2026-05-04 20:19 | 51.71888 | -21.76081 | 39379 ft | 511 kts | 72° |
| 2026-05-04 20:20 | 51.73732 | -21.65004 | 39376 ft | 511 kts | 72° |
| 2026-05-04 20:20 | 51.75553 | -21.53989 | 39373 ft | 511 kts | 73° |
| 2026-05-04 20:21 | 51.77376 | -21.42894 | 39369 ft | 511 kts | 73° |
| 2026-05-04 20:21 | 51.80087 | -21.26240 | 39369 ft | 511 kts | 73° |
| 2026-05-04 20:22 | 51.81883 | -21.15127 | 39361 ft | 511 kts | 73° |
| 2026-05-04 20:22 | 51.83667 | -21.04010 | 39358 ft | 511 kts | 73° |
| 2026-05-04 20:23 | 51.85440 | -20.92893 | 39363 ft | 510 kts | 73° |
| 2026-05-04 20:23 | 51.87202 | -20.81773 | 39360 ft | 510 kts | 73° |
| 2026-05-04 20:24 | 51.88952 | -20.70651 | 39357 ft | 510 kts | 73° |
| 2026-05-04 20:24 | 51.90689 | -20.59529 | 39354 ft | 510 kts | 73° |
| 2026-05-04 20:25 | 51.92418 | -20.48395 | 39351 ft | 510 kts | 73° |
| 2026-05-04 20:25 | 51.94137 | -20.37251 | 39351 ft | 510 kts | 74° |
| 2026-05-04 20:26 | 51.95843 | -20.26101 | 39346 ft | 510 kts | 74° |
| 2026-05-04 20:26 | 51.97539 | -20.14939 | 39346 ft | 510 kts | 74° |
| 2026-05-04 20:27 | 51.99207 | -20.03770 | 39342 ft | 510 kts | 76° |
| 2026-05-04 20:27 | 51.99951 | -19.92299 | 39346 ft | 513 kts | 85° |
| 2026-05-04 20:28 | 52.00239 | -19.80734 | 39343 ft | 513 kts | 86° |
| 2026-05-04 20:28 | 52.00434 | -19.69157 | 39340 ft | 513 kts | 87° |
| 2026-05-04 20:29 | 52.00620 | -19.57584 | 39340 ft | 513 kts | 86° |
| 2026-05-04 20:29 | 52.00812 | -19.46006 | 39335 ft | 513 kts | 86° |
| 2026-05-04 20:30 | 52.00997 | -19.34517 | 39340 ft | 513 kts | 87° |
| 2026-05-04 20:30 | 52.01173 | -19.22951 | 39328 ft | 513 kts | 87° |
| 2026-05-04 20:31 | 52.01337 | -19.11374 | 39326 ft | 513 kts | 87° |
| 2026-05-04 20:31 | 52.01490 | -18.99812 | 39319 ft | 513 kts | 87° |
| 2026-05-04 20:32 | 52.01631 | -18.88239 | 39322 ft | 513 kts | 87° |
| 2026-05-04 20:32 | 52.01762 | -18.76676 | 39321 ft | 513 kts | 87° |
| 2026-05-04 20:33 | 52.01880 | -18.65094 | 39316 ft | 513 kts | 87° |
| 2026-05-04 20:33 | 52.01987 | -18.53521 | 39317 ft | 513 kts | 88° |
| 2026-05-04 20:34 | 52.02084 | -18.41942 | 39305 ft | 513 kts | 88° |
| 2026-05-04 20:34 | 52.02168 | -18.30372 | 39306 ft | 513 kts | 88° |
| 2026-05-04 20:35 | 52.02242 | -18.18787 | 39304 ft | 513 kts | 88° |
| 2026-05-04 20:35 | 52.02303 | -18.07219 | 39298 ft | 513 kts | 88° |
| 2026-05-04 20:36 | 52.02353 | -17.95638 | 39298 ft | 513 kts | 88° |
| 2026-05-04 20:36 | 52.02386 | -17.86014 | 39297 ft | 513 kts | 88° |
| 2026-05-04 20:37 | 52.02416 | -17.74445 | 39297 ft | 512 kts | 88° |
| 2026-05-04 20:37 | 52.02434 | -17.62892 | 39288 ft | 512 kts | 88° |
| 2026-05-04 20:38 | 52.02440 | -17.51333 | 39286 ft | 512 kts | 88° |
| 2026-05-04 20:38 | 52.02435 | -17.39779 | 39283 ft | 512 kts | 88° |
| 2026-05-04 20:39 | 52.02420 | -17.28227 | 39280 ft | 512 kts | 89° |
| 2026-05-04 20:39 | 52.02393 | -17.16665 | 39277 ft | 512 kts | 89° |
| 2026-05-04 20:40 | 52.02354 | -17.05104 | 39274 ft | 512 kts | 89° |
| 2026-05-04 20:40 | 52.02304 | -16.93552 | 39276 ft | 512 kts | 89° |
| 2026-05-04 20:41 | 52.02243 | -16.82006 | 39270 ft | 511 kts | 89° |
| 2026-05-04 20:41 | 52.02173 | -16.70473 | 39268 ft | 511 kts | 89° |
| 2026-05-04 20:42 | 52.02090 | -16.58935 | 39269 ft | 511 kts | 89° |
| 2026-05-04 20:42 | 52.01995 | -16.47414 | 39266 ft | 511 kts | 89° |
| 2026-05-04 20:43 | 52.01888 | -16.35870 | 39270 ft | 511 kts | 89° |
| 2026-05-04 20:43 | 52.01771 | -16.24349 | 39262 ft | 511 kts | 89° |
| 2026-05-04 20:44 | 52.01643 | -16.12820 | 39262 ft | 511 kts | 89° |
| 2026-05-04 20:44 | 52.01504 | -16.01290 | 39257 ft | 511 kts | 89° |
| 2026-05-04 20:45 | 52.01354 | -15.89833 | 39255 ft | 511 kts | 89° |
| 2026-05-04 20:45 | 52.01191 | -15.78305 | 39254 ft | 511 kts | 90° |
| 2026-05-04 20:46 | 52.01018 | -15.66789 | 39246 ft | 510 kts | 90° |
| 2026-05-04 20:46 | 52.00834 | -15.55279 | 39244 ft | 510 kts | 90° |
| 2026-05-04 20:47 | 52.00639 | -15.43763 | 39240 ft | 511 kts | 90° |
| 2026-05-04 20:47 | 52.00430 | -15.32250 | 39238 ft | 510 kts | 90° |
| 2026-05-04 20:48 | 52.00212 | -15.20759 | 39236 ft | 509 kts | 90° |
| 2026-05-04 20:48 | 51.99984 | -15.09286 | 39235 ft | 508 kts | 90° |
| 2026-05-04 20:49 | 51.99748 | -14.97816 | 39236 ft | 508 kts | 90° |
| 2026-05-04 20:49 | 51.99732 | -14.86365 | 39227 ft | 508 kts | 88° |
| 2026-05-04 20:50 | 51.99827 | -14.74911 | 39231 ft | 507 kts | 88° |
| 2026-05-04 20:50 | 51.99887 | -14.63463 | 39230 ft | 507 kts | 88° |
| 2026-05-04 20:51 | 51.99904 | -14.52016 | 39239 ft | 507 kts | 88° |
| 2026-05-04 20:51 | 51.99898 | -14.40570 | 39227 ft | 507 kts | 88° |
| 2026-05-04 20:52 | 51.99881 | -14.29113 | 39226 ft | 507 kts | 89° |
| 2026-05-04 20:52 | 51.99854 | -14.17670 | 39226 ft | 507 kts | 89° |
| 2026-05-04 20:53 | 51.99819 | -14.06236 | 39223 ft | 507 kts | 89° |
| 2026-05-04 20:53 | 51.99781 | -13.94864 | 39217 ft | 507 kts | 89° |
| 2026-05-04 20:54 | 51.99798 | -13.83424 | 39225 ft | 507 kts | 88° |
| 2026-05-04 20:54 | 51.99817 | -13.71986 | 39218 ft | 507 kts | 88° |
| 2026-05-04 20:55 | 51.99819 | -13.60555 | 39213 ft | 507 kts | 89° |
| 2026-05-04 20:55 | 51.99804 | -13.49118 | 39212 ft | 507 kts | 89° |
| 2026-05-04 20:56 | 51.99773 | -13.37690 | 39210 ft | 506 kts | 89° |
| 2026-05-04 20:56 | 51.99733 | -13.26271 | 39218 ft | 505 kts | 89° |
| 2026-05-04 20:57 | 51.99682 | -13.14880 | 39210 ft | 505 kts | 89° |
| 2026-05-04 20:57 | 51.99622 | -13.03494 | 39211 ft | 504 kts | 89° |
| 2026-05-04 20:58 | 51.99551 | -12.92109 | 39205 ft | 505 kts | 89° |
| 2026-05-04 20:58 | 51.99469 | -12.80724 | 39211 ft | 505 kts | 89° |
| 2026-05-04 20:59 | 51.99374 | -12.69359 | 39201 ft | 504 kts | 89° |
| 2026-05-04 20:59 | 51.99269 | -12.58008 | 39196 ft | 503 kts | 89° |
| 2026-05-04 21:00 | 51.99154 | -12.46648 | 39199 ft | 504 kts | 89° |
| 2026-05-04 21:00 | 51.99025 | -12.35282 | 39199 ft | 504 kts | 89° |
| 2026-05-04 21:01 | 51.98889 | -12.24003 | 39199 ft | 503 kts | 89° |
| 2026-05-04 21:01 | 51.98742 | -12.12672 | 39191 ft | 502 kts | 90° |
| 2026-05-04 21:02 | 51.98584 | -12.01334 | 39190 ft | 502 kts | 89° |
| 2026-05-04 21:02 | 51.98414 | -11.90013 | 39188 ft | 502 kts | 90° |
| 2026-05-04 21:03 | 51.98234 | -11.78673 | 39191 ft | 502 kts | 89° |
| 2026-05-04 21:03 | 51.98044 | -11.67374 | 39186 ft | 501 kts | 89° |
| 2026-05-04 21:04 | 51.97840 | -11.56086 | 39179 ft | 500 kts | 90° |
| 2026-05-04 21:04 | 51.97629 | -11.44823 | 39178 ft | 500 kts | 90° |
| 2026-05-04 21:05 | 51.97405 | -11.33538 | 39178 ft | 500 kts | 90° |
| 2026-05-04 21:05 | 51.97170 | -11.22328 | 39184 ft | 495 kts | 90° |
| 2026-05-04 21:06 | 51.96926 | -11.11187 | 39174 ft | 493 kts | 90° |
| 2026-05-04 21:06 | 51.96676 | -11.00083 | 39176 ft | 493 kts | 90° |
| 2026-05-04 21:07 | 51.96416 | -10.88962 | 39169 ft | 493 kts | 90° |
| 2026-05-04 21:07 | 51.96143 | -10.77858 | 39180 ft | 493 kts | 91° |
| 2026-05-04 21:08 | 51.95860 | -10.66760 | 39173 ft | 492 kts | 91° |
| 2026-05-04 21:08 | 51.95567 | -10.55697 | 39168 ft | 491 kts | 91° |
| 2026-05-04 21:09 | 51.95267 | -10.44703 | 39166 ft | 491 kts | 91° |
| 2026-05-04 21:09 | 51.94954 | -10.33636 | 39165 ft | 492 kts | 91° |
| 2026-05-04 21:10 | 51.94631 | -10.22570 | 39162 ft | 492 kts | 91° |
| 2026-05-04 21:10 | 51.94299 | -10.11507 | 39157 ft | 492 kts | 91° |
| 2026-05-04 21:11 | 51.93955 | -10.00430 | 39160 ft | 492 kts | 91° |
| 2026-05-04 21:11 | 51.93601 | -9.89375 | 39155 ft | 492 kts | 91° |
| 2026-05-04 21:12 | 51.93236 | -9.78296 | 39152 ft | 492 kts | 91° |
| 2026-05-04 21:12 | 51.92862 | -9.67257 | 39164 ft | 490 kts | 92° |
| 2026-05-04 21:13 | 51.92476 | -9.56237 | 39150 ft | 490 kts | 92° |
| 2026-05-04 21:13 | 51.92080 | -9.45223 | 39153 ft | 490 kts | 92° |
| 2026-05-04 21:14 | 51.91676 | -9.34200 | 39150 ft | 490 kts | 92° |
| 2026-05-04 21:14 | 51.91262 | -9.23182 | 39146 ft | 489 kts | 92° |
| 2026-05-04 21:15 | 51.90837 | -9.12179 | 39143 ft | 489 kts | 92° |
| 2026-05-04 21:15 | 51.90402 | -9.01191 | 39138 ft | 489 kts | 92° |
| 2026-05-04 21:16 | 51.89957 | -8.90203 | 39121 ft | 489 kts | 92° |
| 2026-05-04 21:16 | 51.89503 | -8.79214 | 39122 ft | 489 kts | 92° |
| 2026-05-04 21:17 | 51.89038 | -8.68218 | 39105 ft | 490 kts | 92° |
| 2026-05-04 21:17 | 51.88560 | -8.57214 | 39101 ft | 490 kts | 92° |
| 2026-05-04 21:18 | 51.88070 | -8.46207 | 39099 ft | 490 kts | 92° |
| 2026-05-04 21:18 | 51.87572 | -8.35196 | 39107 ft | 490 kts | 93° |
| 2026-05-04 21:19 | 51.87065 | -8.24192 | 39105 ft | 491 kts | 93° |
| 2026-05-04 21:19 | 51.86546 | -8.13165 | 39101 ft | 492 kts | 93° |
| 2026-05-04 21:20 | 51.86015 | -8.02126 | 39102 ft | 492 kts | 93° |
| 2026-05-04 21:20 | 51.85473 | -7.91094 | 39098 ft | 492 kts | 94° |
| 2026-05-04 21:21 | 51.84921 | -7.80053 | 39100 ft | 492 kts | 94° |
| 2026-05-04 21:21 | 51.84362 | -7.69013 | 39097 ft | 493 kts | 94° |
| 2026-05-04 21:22 | 51.83790 | -7.57965 | 39102 ft | 493 kts | 94° |
| 2026-05-04 21:22 | 51.83210 | -7.46993 | 39102 ft | 493 kts | 94° |
| 2026-05-04 21:23 | 51.82616 | -7.35950 | 39099 ft | 493 kts | 94° |
| 2026-05-04 21:23 | 51.82012 | -7.24908 | 39101 ft | 494 kts | 94° |
| 2026-05-04 21:24 | 51.81396 | -7.13845 | 39098 ft | 494 kts | 94° |
| 2026-05-04 21:24 | 51.80871 | -7.04572 | 39099 ft | 495 kts | 94° |
| 2026-05-04 21:25 | 51.80236 | -6.93509 | 39104 ft | 495 kts | 94° |
| 2026-05-04 21:25 | 51.79590 | -6.82440 | 39090 ft | 494 kts | 95° |
| 2026-05-04 21:26 | 51.78936 | -6.71375 | 39092 ft | 495 kts | 95° |
| 2026-05-04 21:26 | 51.78270 | -6.60308 | 39090 ft | 496 kts | 95° |
| 2026-05-04 21:27 | 51.77512 | -6.49237 | 39087 ft | 496 kts | 97° |
| 2026-05-04 21:27 | 51.76481 | -6.38306 | 39088 ft | 496 kts | 98° |
| 2026-05-04 21:28 | 51.75399 | -6.27310 | 39087 ft | 496 kts | 98° |
| 2026-05-04 21:28 | 51.74348 | -6.16312 | 39083 ft | 496 kts | 98° |
| 2026-05-04 21:29 | 51.73311 | -6.05306 | 39080 ft | 496 kts | 98° |
| 2026-05-04 21:29 | 51.72268 | -5.94313 | 39074 ft | 496 kts | 98° |
| 2026-05-04 21:30 | 51.71214 | -5.83323 | 39074 ft | 496 kts | 98° |
| 2026-05-04 21:30 | 51.70150 | -5.72337 | 39075 ft | 496 kts | 99° |
| 2026-05-04 21:31 | 51.68531 | -5.55845 | 39069 ft | 496 kts | 99° |
| 2026-05-04 21:32 | 51.67436 | -5.44863 | 39066 ft | 496 kts | 99° |
| 2026-05-04 21:32 | 51.66335 | -5.33919 | 39061 ft | 495 kts | 99° |
| 2026-05-04 21:33 | 51.65227 | -5.22983 | 39061 ft | 495 kts | 99° |
| 2026-05-04 21:33 | 51.64108 | -5.12049 | 39058 ft | 495 kts | 99° |
| 2026-05-04 21:34 | 51.62987 | -5.01193 | 39058 ft | 495 kts | 99° |
| 2026-05-04 21:34 | 51.61841 | -4.90212 | 39058 ft | 495 kts | 99° |
| 2026-05-04 21:35 | 51.60698 | -4.79363 | 39054 ft | 495 kts | 99° |
| 2026-05-04 21:35 | 51.59538 | -4.68454 | 39056 ft | 494 kts | 99° |
| 2026-05-04 21:36 | 51.58369 | -4.57565 | 39051 ft | 494 kts | 99° |
| 2026-05-04 21:36 | 51.57190 | -4.46674 | 39049 ft | 494 kts | 99° |
| 2026-05-04 21:37 | 51.56001 | -4.35784 | 39050 ft | 494 kts | 100° |
| 2026-05-04 21:37 | 51.54802 | -4.24893 | 39050 ft | 496 kts | 100° |
| 2026-05-04 21:38 | 51.53588 | -4.13983 | 39044 ft | 497 kts | 100° |
| 2026-05-04 21:38 | 51.52362 | -4.03067 | 39047 ft | 496 kts | 100° |
| 2026-05-04 21:39 | 51.51129 | -3.92165 | 39048 ft | 496 kts | 100° |
| 2026-05-04 21:39 | 51.49884 | -3.81248 | 39048 ft | 499 kts | 101° |
| 2026-05-04 21:40 | 51.48620 | -3.70270 | 39045 ft | 501 kts | 101° |
| 2026-05-04 21:40 | 51.47554 | -3.59235 | 39048 ft | 501 kts | 97° |
| 2026-05-04 21:41 | 51.46851 | -3.48101 | 39049 ft | 501 kts | 96° |
| 2026-05-04 21:41 | 51.46202 | -3.36963 | 39047 ft | 501 kts | 96° |
| 2026-05-04 21:42 | 51.45552 | -3.25839 | 39047 ft | 501 kts | 96° |
| 2026-05-04 21:42 | 51.44884 | -3.14707 | 39047 ft | 501 kts | 96° |
| 2026-05-04 21:43 | 51.44199 | -3.03588 | 39047 ft | 501 kts | 96° |
| 2026-05-04 21:43 | 51.43500 | -2.92464 | 39047 ft | 501 kts | 96° |
| 2026-05-04 21:44 | 51.42794 | -2.81362 | 39046 ft | 501 kts | 96° |
| 2026-05-04 21:44 | 51.42082 | -2.70326 | 39047 ft | 501 kts | 97° |
| 2026-05-04 21:45 | 51.41357 | -2.59231 | 39047 ft | 501 kts | 96° |
| 2026-05-04 21:45 | 51.40619 | -2.48154 | 39047 ft | 500 kts | 97° |
| 2026-05-04 21:46 | 51.39872 | -2.37068 | 39044 ft | 500 kts | 97° |
| 2026-05-04 21:46 | 51.39116 | -2.25991 | 39048 ft | 501 kts | 97° |
| 2026-05-04 21:47 | 51.38347 | -2.14914 | 39046 ft | 501 kts | 97° |
| 2026-05-04 21:47 | 51.37568 | -2.03850 | 39044 ft | 501 kts | 97° |
| 2026-05-04 21:48 | 51.36781 | -1.92775 | 39042 ft | 500 kts | 97° |
| 2026-05-04 21:48 | 51.35984 | -1.81715 | 39044 ft | 501 kts | 97° |
| 2026-05-04 21:49 | 51.35172 | -1.70662 | 39044 ft | 501 kts | 97° |
| 2026-05-04 21:49 | 51.34351 | -1.59602 | 39044 ft | 501 kts | 97° |
| 2026-05-04 21:50 | 51.33524 | -1.48543 | 39036 ft | 501 kts | 98° |
| 2026-05-04 21:50 | 51.32682 | -1.37499 | 39024 ft | 501 kts | 98° |
| 2026-05-04 21:51 | 51.31826 | -1.26422 | 39023 ft | 503 kts | 98° |
| 2026-05-04 21:51 | 51.30961 | -1.15326 | 39019 ft | 503 kts | 98° |
| 2026-05-04 21:52 | 51.30339 | -1.04191 | 39019 ft | 503 kts | 95° |
| 2026-05-04 21:52 | 51.29852 | -0.93033 | 39042 ft | 504 kts | 95° |
| 2026-05-04 21:53 | 51.29329 | -0.81863 | 39048 ft | 504 kts | 96° |
| 2026-05-04 21:53 | 51.28757 | -0.70683 | 39047 ft | 505 kts | 96° |
| 2026-05-04 21:54 | 51.28163 | -0.59516 | 39045 ft | 505 kts | 96° |
| 2026-05-04 21:54 | 51.27559 | -0.48340 | 39040 ft | 505 kts | 96° |
| 2026-05-04 21:55 | 51.26949 | -0.37251 | 39028 ft | 505 kts | 96° |
| 2026-05-04 21:55 | 51.26328 | -0.26096 | 39022 ft | 505 kts | 96° |
| 2026-05-04 21:56 | 51.25688 | -0.14856 | 39022 ft | 505 kts | 96° |
| 2026-05-04 21:56 | 51.25048 | -0.03779 | 39026 ft | 505 kts | 96° |
| 2026-05-04 21:57 | 51.24393 | 0.07329 | 39026 ft | 505 kts | 96° |
| 2026-05-04 21:57 | 51.23728 | 0.18503 | 39027 ft | 506 kts | 97° |
| 2026-05-04 21:58 | 51.23057 | 0.29522 | 39021 ft | 506 kts | 97° |
| 2026-05-04 21:58 | 51.22372 | 0.40685 | 39022 ft | 506 kts | 97° |
| 2026-05-04 21:59 | 51.21675 | 0.51773 | 39019 ft | 506 kts | 97° |
| 2026-05-04 21:59 | 51.20966 | 0.62945 | 39021 ft | 506 kts | 97° |
| 2026-05-04 22:00 | 51.20246 | 0.74118 | 39024 ft | 506 kts | 97° |
| 2026-05-04 22:00 | 51.19512 | 0.85289 | 39036 ft | 507 kts | 97° |
| 2026-05-04 22:01 | 51.18773 | 0.96377 | 39024 ft | 507 kts | 97° |
| 2026-05-04 22:01 | 51.18298 | 1.03410 | 39030 ft | 508 kts | 97° |
| 2026-05-04 22:02 | 51.17536 | 1.14610 | 39030 ft | 509 kts | 98° |
| 2026-05-04 22:02 | 51.16761 | 1.25819 | 39032 ft | 509 kts | 98° |
| 2026-05-04 22:03 | 51.15976 | 1.37018 | 39032 ft | 509 kts | 98° |
| 2026-05-04 22:03 | 51.15362 | 1.48246 | 39031 ft | 509 kts | 96° |
| 2026-05-04 22:04 | 51.14875 | 1.59476 | 39030 ft | 509 kts | 95° |
| 2026-05-04 22:04 | 51.14360 | 1.70729 | 39028 ft | 509 kts | 96° |
| 2026-05-04 22:05 | 51.13805 | 1.81966 | 39028 ft | 509 kts | 96° |
| 2026-05-04 22:05 | 51.13225 | 1.93204 | 39019 ft | 509 kts | 96° |
| 2026-05-04 22:06 | 51.12638 | 2.04435 | 39022 ft | 509 kts | 96° |
| 2026-05-04 22:06 | 51.12039 | 2.15664 | 39021 ft | 509 kts | 96° |
| 2026-05-04 22:07 | 51.11426 | 2.26895 | 39020 ft | 509 kts | 96° |
| 2026-05-04 22:07 | 51.10804 | 2.38121 | 39009 ft | 509 kts | 97° |
| 2026-05-04 22:08 | 51.10171 | 2.49366 | 39018 ft | 511 kts | 97° |
| 2026-05-04 22:08 | 51.09522 | 2.60621 | 39016 ft | 511 kts | 97° |
| 2026-05-04 22:09 | 51.08074 | 2.71638 | 39009 ft | 508 kts | 107° |
| 2026-05-04 22:09 | 51.06188 | 2.82386 | 39018 ft | 508 kts | 108° |
| 2026-05-04 22:10 | 51.04203 | 2.93161 | 39020 ft | 508 kts | 108° |
| 2026-05-04 22:10 | 51.02209 | 3.03925 | 39017 ft | 508 kts | 108° |
| 2026-05-04 22:11 | 51.00220 | 3.14692 | 39014 ft | 508 kts | 108° |
| 2026-05-04 22:11 | 50.98565 | 3.23627 | 38996 ft | 508 kts | 108° |
| 2026-05-04 22:12 | 50.96565 | 3.34370 | 38987 ft | 508 kts | 109° |
| 2026-05-04 22:12 | 50.94215 | 3.46913 | 38987 ft | 508 kts | 109° |
| 2026-05-04 22:13 | 50.92534 | 3.55825 | 38981 ft | 508 kts | 109° |
| 2026-05-04 22:13 | 50.90504 | 3.66544 | 38979 ft | 508 kts | 109° |
| 2026-05-04 22:14 | 50.88450 | 3.77234 | 38966 ft | 508 kts | 109° |
| 2026-05-04 22:14 | 50.86374 | 3.87917 | 38973 ft | 507 kts | 109° |
| 2026-05-04 22:15 | 50.84293 | 3.98583 | 38958 ft | 507 kts | 109° |
| 2026-05-04 22:15 | 50.82202 | 4.09248 | 38966 ft | 507 kts | 109° |
| 2026-05-04 22:16 | 50.80104 | 4.19907 | 38961 ft | 507 kts | 109° |
| 2026-05-04 22:16 | 50.77998 | 4.30543 | 38965 ft | 507 kts | 110° |
| 2026-05-04 22:17 | 50.75886 | 4.41156 | 38967 ft | 507 kts | 110° |
| 2026-05-04 22:17 | 50.73763 | 4.51769 | 38966 ft | 507 kts | 110° |
| 2026-05-04 22:18 | 50.71634 | 4.62364 | 38963 ft | 507 kts | 110° |
| 2026-05-04 22:18 | 50.69560 | 4.72990 | 38947 ft | 507 kts | 109° |
| 2026-05-04 22:18 | 50.68545 | 4.78268 | 38576 ft | 501 kts | 109° |
| 2026-05-04 22:19 | 50.67539 | 4.83495 | 38146 ft | 496 kts | 109° |
| 2026-05-04 22:19 | 50.66535 | 4.88680 | 37496 ft | 493 kts | 109° |
| 2026-05-04 22:19 | 50.65533 | 4.93819 | 37056 ft | 488 kts | 110° |
| 2026-05-04 22:19 | 50.64511 | 4.98906 | 36949 ft | 487 kts | 110° |
| 2026-05-04 22:20 | 50.63467 | 5.03971 | 36951 ft | 486 kts | 111° |
| 2026-05-04 22:20 | 50.61364 | 5.14066 | 36955 ft | 485 kts | 111° |
| 2026-05-04 22:21 | 50.59259 | 5.24171 | 36958 ft | 486 kts | 111° |
| 2026-05-04 22:21 | 50.57153 | 5.34269 | 36950 ft | 486 kts | 111° |
| 2026-05-04 22:22 | 50.55042 | 5.44358 | 36953 ft | 486 kts | 111° |
| 2026-05-04 22:22 | 50.52926 | 5.54431 | 36626 ft | 485 kts | 111° |
| 2026-05-04 22:22 | 50.51863 | 5.59466 | 35935 ft | 484 kts | 112° |
| 2026-05-04 22:23 | 50.50800 | 5.64501 | 35013 ft | 490 kts | 112° |
| 2026-05-04 22:23 | 50.49779 | 5.69653 | 34059 ft | 498 kts | 111° |
| 2026-05-04 22:23 | 50.48793 | 5.74892 | 33154 ft | 501 kts | 111° |
| 2026-05-04 22:23 | 50.47828 | 5.80133 | 32432 ft | 499 kts | 110° |
| 2026-05-04 22:24 | 50.46877 | 5.85301 | 31581 ft | 501 kts | 110° |
| 2026-05-04 22:24 | 50.45883 | 5.90644 | 30633 ft | 505 kts | 110° |
| 2026-05-04 22:24 | 50.44897 | 5.95891 | 30215 ft | 498 kts | 111° |
| 2026-05-04 22:24 | 50.43924 | 6.01056 | 29921 ft | 487 kts | 111° |
| 2026-05-04 22:25 | 50.42966 | 6.06138 | 29094 ft | 487 kts | 111° |
| 2026-05-04 22:25 | 50.41994 | 6.11229 | 28294 ft | 487 kts | 111° |
| 2026-05-04 22:25 | 50.41033 | 6.16232 | 27649 ft | 484 kts | 111° |
| 2026-05-04 22:25 | 50.40063 | 6.21268 | 27077 ft | 481 kts | 111° |
| 2026-05-04 22:26 | 50.39085 | 6.26333 | 26485 ft | 477 kts | 110° |
| 2026-05-04 22:26 | 50.38144 | 6.31213 | 25937 ft | 473 kts | 110° |
| 2026-05-04 22:26 | 50.37196 | 6.36124 | 25401 ft | 469 kts | 110° |
| 2026-05-04 22:26 | 50.36375 | 6.41060 | 24849 ft | 468 kts | 103° |
| 2026-05-04 22:27 | 50.35894 | 6.46087 | 24324 ft | 465 kts | 101° |
| 2026-05-04 22:27 | 50.35513 | 6.51102 | 23748 ft | 463 kts | 100° |
| 2026-05-04 22:27 | 50.35185 | 6.56101 | 23119 ft | 461 kts | 99° |
| 2026-05-04 22:27 | 50.34875 | 6.61073 | 22535 ft | 457 kts | 99° |
| 2026-05-04 22:28 | 50.34573 | 6.65998 | 21956 ft | 452 kts | 99° |
| 2026-05-04 22:28 | 50.34271 | 6.70870 | 21381 ft | 448 kts | 99° |
| 2026-05-04 22:28 | 50.33966 | 6.75709 | 20807 ft | 444 kts | 99° |
| 2026-05-04 22:28 | 50.33699 | 6.80511 | 20227 ft | 441 kts | 98° |
| 2026-05-04 22:29 | 50.33314 | 6.85226 | 19679 ft | 434 kts | 106° |
| 2026-05-04 22:29 | 50.32370 | 6.89653 | 19128 ft | 425 kts | 116° |
| 2026-05-04 22:29 | 50.31175 | 6.93845 | 18569 ft | 420 kts | 118° |
| 2026-05-04 22:29 | 50.29943 | 6.97966 | 17998 ft | 417 kts | 118° |
| 2026-05-04 22:30 | 50.28714 | 7.02057 | 17364 ft | 414 kts | 118° |
| 2026-05-04 22:30 | 50.27497 | 7.06115 | 16736 ft | 411 kts | 118° |
| 2026-05-04 22:30 | 50.26290 | 7.10141 | 16172 ft | 407 kts | 118° |
| 2026-05-04 22:30 | 50.25092 | 7.14135 | 15565 ft | 404 kts | 118° |
| 2026-05-04 22:31 | 50.23905 | 7.18091 | 14987 ft | 401 kts | 118° |
| 2026-05-04 22:31 | 50.22728 | 7.22009 | 14426 ft | 397 kts | 118° |
| 2026-05-04 22:31 | 50.21556 | 7.25904 | 13856 ft | 394 kts | 118° |
| 2026-05-04 22:31 | 50.20394 | 7.29760 | 13281 ft | 391 kts | 118° |
| 2026-05-04 22:32 | 50.19245 | 7.33576 | 13010 ft | 388 kts | 118° |
| 2026-05-04 22:32 | 50.18248 | 7.37451 | 12955 ft | 390 kts | 113° |
| 2026-05-04 22:32 | 50.17335 | 7.41434 | 12977 ft | 390 kts | 112° |
| 2026-05-04 22:32 | 50.16421 | 7.45412 | 12975 ft | 389 kts | 113° |
| 2026-05-04 22:33 | 50.15497 | 7.49378 | 12989 ft | 389 kts | 113° |
| 2026-05-04 22:33 | 50.14561 | 7.53338 | 12984 ft | 389 kts | 113° |
| 2026-05-04 22:33 | 50.13620 | 7.57288 | 12984 ft | 389 kts | 113° |
| 2026-05-04 22:33 | 50.12673 | 7.61243 | 12984 ft | 389 kts | 113° |
| 2026-05-04 22:34 | 50.11723 | 7.65192 | 12985 ft | 389 kts | 114° |
| 2026-05-04 22:34 | 50.10617 | 7.68935 | 12985 ft | 370 kts | 123° |
| 2026-05-04 22:34 | 50.09271 | 7.72227 | 12981 ft | 350 kts | 127° |
| 2026-05-04 22:34 | 50.07936 | 7.75271 | 12978 ft | 332 kts | 128° |
| 2026-05-04 22:35 | 50.06662 | 7.78152 | 12964 ft | 314 kts | 128° |
| 2026-05-04 22:35 | 50.05458 | 7.80873 | 12978 ft | 300 kts | 128° |
| 2026-05-04 22:35 | 50.04277 | 7.83540 | 12982 ft | 298 kts | 128° |
| 2026-05-04 22:35 | 50.03097 | 7.86193 | 12985 ft | 298 kts | 128° |
| 2026-05-04 22:36 | 50.01917 | 7.88841 | 12988 ft | 298 kts | 128° |
| 2026-05-04 22:36 | 50.00735 | 7.91489 | 12987 ft | 298 kts | 128° |
| 2026-05-04 22:36 | 49.99560 | 7.94146 | 12986 ft | 298 kts | 126° |
| 2026-05-04 22:36 | 49.98490 | 7.96914 | 12991 ft | 299 kts | 123° |
| 2026-05-04 22:37 | 49.97469 | 7.99734 | 12990 ft | 300 kts | 123° |
| 2026-05-04 22:37 | 49.96456 | 8.02562 | 12991 ft | 300 kts | 122° |
| 2026-05-04 22:37 | 49.95845 | 8.04267 | 12987 ft | 300 kts | 123° |
| 2026-05-04 22:37 | 49.94791 | 8.07189 | 12991 ft | 300 kts | 123° |
| 2026-05-04 22:38 | 49.93777 | 8.10011 | 12990 ft | 300 kts | 123° |
| 2026-05-04 22:38 | 49.92760 | 8.12838 | 12994 ft | 300 kts | 123° |
| 2026-05-04 22:38 | 49.91742 | 8.15659 | 12978 ft | 299 kts | 123° |
| 2026-05-04 22:38 | 49.90727 | 8.18471 | 12976 ft | 300 kts | 123° |
| 2026-05-04 22:39 | 49.89704 | 8.21298 | 12982 ft | 300 kts | 122° |
| 2026-05-04 22:39 | 49.88749 | 8.24185 | 12968 ft | 303 kts | 115° |
| 2026-05-04 22:39 | 49.88217 | 8.27358 | 12978 ft | 307 kts | 98° |
| 2026-05-04 22:39 | 49.88332 | 8.30668 | 12977 ft | 311 kts | 79° |
| 2026-05-04 22:40 | 49.88972 | 8.33889 | 12979 ft | 313 kts | 72° |
| 2026-05-04 22:40 | 49.89743 | 8.37052 | 12982 ft | 315 kts | 71° |
| 2026-05-04 22:40 | 49.90532 | 8.40234 | 12974 ft | 316 kts | 71° |
| 2026-05-04 22:40 | 49.91316 | 8.43421 | 12979 ft | 317 kts | 71° |
| 2026-05-04 22:41 | 49.92094 | 8.46615 | 12980 ft | 317 kts | 71° |
| 2026-05-04 22:41 | 49.92869 | 8.49820 | 12970 ft | 317 kts | 71° |
| 2026-05-04 22:41 | 49.93640 | 8.53019 | 12961 ft | 317 kts | 72° |
| 2026-05-04 22:41 | 49.94412 | 8.56218 | 12964 ft | 317 kts | 72° |
| 2026-05-04 22:42 | 49.95172 | 8.59384 | 12968 ft | 317 kts | 72° |
| 2026-05-04 22:42 | 49.95946 | 8.62630 | 12970 ft | 317 kts | 72° |
| 2026-05-04 22:42 | 49.96701 | 8.65796 | 12968 ft | 316 kts | 72° |
| 2026-05-04 22:42 | 49.97464 | 8.69000 | 12967 ft | 316 kts | 72° |
| 2026-05-04 22:43 | 49.98226 | 8.72206 | 12965 ft | 316 kts | 72° |
| 2026-05-04 22:43 | 49.98989 | 8.75412 | 12973 ft | 316 kts | 72° |
| 2026-05-04 22:43 | 49.99750 | 8.78621 | 12971 ft | 316 kts | 72° |
| 2026-05-04 22:43 | 50.00510 | 8.81825 | 12971 ft | 316 kts | 72° |
| 2026-05-04 22:44 | 50.01273 | 8.85037 | 12973 ft | 316 kts | 72° |
| 2026-05-04 22:44 | 50.02031 | 8.88246 | 12968 ft | 316 kts | 72° |
| 2026-05-04 22:44 | 50.02785 | 8.91445 | 12867 ft | 312 kts | 72° |
| 2026-05-04 22:44 | 50.03533 | 8.94601 | 12419 ft | 311 kts | 72° |
| 2026-05-04 22:45 | 50.04281 | 8.97763 | 11933 ft | 311 kts | 72° |
| 2026-05-04 22:45 | 50.05761 | 9.04058 | 11131 ft | 308 kts | 72° |
| 2026-05-04 22:45 | 50.06490 | 9.07185 | 10722 ft | 306 kts | 72° |
| 2026-05-04 22:46 | 50.07219 | 9.10300 | 10336 ft | 306 kts | 72° |
| 2026-05-04 22:46 | 50.07940 | 9.13401 | 9957 ft | 304 kts | 72° |
| 2026-05-04 22:46 | 50.08658 | 9.16491 | 9540 ft | 302 kts | 72° |
| 2026-05-04 22:46 | 50.09373 | 9.19554 | 9123 ft | 301 kts | 72° |
| 2026-05-04 22:47 | 50.10085 | 9.22629 | 8668 ft | 301 kts | 72° |
| 2026-05-04 22:47 | 50.10790 | 9.25677 | 8296 ft | 298 kts | 72° |
| 2026-05-04 22:47 | 50.11490 | 9.28699 | 7917 ft | 295 kts | 72° |
| 2026-05-04 22:47 | 50.12182 | 9.31699 | 7521 ft | 293 kts | 72° |
| 2026-05-04 22:48 | 50.12869 | 9.34678 | 7162 ft | 291 kts | 72° |
| 2026-05-04 22:48 | 50.13551 | 9.37630 | 7003 ft | 289 kts | 71° |
| 2026-05-04 22:48 | 50.14240 | 9.40587 | 6985 ft | 290 kts | 71° |
| 2026-05-04 22:48 | 50.15256 | 9.43237 | 6981 ft | 291 kts | 45° |
| 2026-05-04 22:49 | 50.16961 | 9.44860 | 6977 ft | 289 kts | 14° |
| 2026-05-04 22:49 | 50.18935 | 9.44954 | 6990 ft | 284 kts | 343° |
| 2026-05-04 22:49 | 50.20669 | 9.43591 | 7182 ft | 280 kts | 318° |
| 2026-05-04 22:49 | 50.21939 | 9.41339 | 7179 ft | 275 kts | 296° |
| 2026-05-04 22:50 | 50.22519 | 9.38561 | 7033 ft | 268 kts | 272° |
| 2026-05-04 22:50 | 50.22365 | 9.35711 | 6763 ft | 262 kts | 251° |
| 2026-05-04 22:50 | 50.21720 | 9.33059 | 6325 ft | 262 kts | 246° |
| 2026-05-04 22:50 | 50.21047 | 9.30420 | 6057 ft | 262 kts | 247° |
| 2026-05-04 22:51 | 50.20389 | 9.27748 | 6007 ft | 264 kts | 248° |
| 2026-05-04 22:51 | 50.19745 | 9.25069 | 6012 ft | 264 kts | 248° |
| 2026-05-04 22:51 | 50.19111 | 9.22386 | 6028 ft | 263 kts | 249° |
| 2026-05-04 22:51 | 50.18490 | 9.19743 | 5990 ft | 252 kts | 248° |
| 2026-05-04 22:52 | 50.17860 | 9.17292 | 6003 ft | 237 kts | 249° |
| 2026-05-04 22:52 | 50.17341 | 9.14880 | 6024 ft | 234 kts | 249° |
| 2026-05-04 22:52 | 50.16824 | 9.12475 | 6021 ft | 234 kts | 249° |
| 2026-05-04 22:52 | 50.16307 | 9.10072 | 6007 ft | 234 kts | 249° |
| 2026-05-04 22:53 | 50.15781 | 9.07673 | 6020 ft | 234 kts | 249° |
| 2026-05-04 22:53 | 50.15229 | 9.05295 | 6017 ft | 233 kts | 246° |
| 2026-05-04 22:53 | 50.14605 | 9.02966 | 6016 ft | 233 kts | 245° |
| 2026-05-04 22:53 | 50.14016 | 9.00612 | 6014 ft | 233 kts | 248° |
| 2026-05-04 22:54 | 50.13465 | 8.98225 | 5864 ft | 233 kts | 248° |
| 2026-05-04 22:54 | 50.12905 | 8.95858 | 5558 ft | 233 kts | 248° |
| 2026-05-04 22:54 | 50.12345 | 8.93525 | 5196 ft | 233 kts | 248° |
| 2026-05-04 22:54 | 50.11774 | 8.91125 | 4809 ft | 234 kts | 248° |
| 2026-05-04 22:55 | 50.11210 | 8.88756 | 4415 ft | 233 kts | 248° |
| 2026-05-04 22:55 | 50.10647 | 8.86396 | 4073 ft | 231 kts | 249° |
| 2026-05-04 22:55 | 50.10090 | 8.84060 | 3759 ft | 228 kts | 249° |
| 2026-05-04 22:55 | 50.09549 | 8.81796 | 3469 ft | 216 kts | 249° |
| 2026-05-04 22:56 | 50.09040 | 8.79670 | 3201 ft | 202 kts | 249° |
| 2026-05-04 22:56 | 50.08573 | 8.77722 | 2928 ft | 187 kts | 249° |
| 2026-05-04 22:56 | 50.08128 | 8.75864 | 2689 ft | 175 kts | 249° |
| 2026-05-04 22:56 | 50.07721 | 8.74162 | 2462 ft | 164 kts | 250° |
| 2026-05-04 22:57 | 50.07334 | 8.72545 | 2241 ft | 156 kts | 250° |
| 2026-05-04 22:57 | 50.06956 | 8.70961 | 2049 ft | 156 kts | 250° |
| 2026-05-04 22:57 | 50.06575 | 8.69371 | 1832 ft | 157 kts | 250° |
| 2026-05-04 22:57 | 50.06214 | 8.67767 | 1668 ft | 156 kts | 252° |
| 2026-05-04 22:58 | 50.05845 | 8.66160 | 1453 ft | 159 kts | 251° |
| 2026-05-04 22:58 | 50.05465 | 8.64559 | 1178 ft | 156 kts | 246° |
| 2026-05-04 22:58 | 50.05049 | 8.63009 | 1017 ft | 155 kts | 251° |
| 2026-05-04 22:58 | 50.04671 | 8.61419 | 828 ft | 157 kts | 246° |
| 2026-05-04 22:59 | 50.04298 | 8.59828 | 571 ft | 157 kts | 250° |
| 2026-05-04 22:59 | 50.03907 | 8.58257 | 389 ft | 156 kts | 248° |
| 2026-05-04 22:59 | 50.03655 | 8.57233 | 370 ft | 147 kts | 250° |
| 2026-05-04 22:59 | 50.03282 | 8.55624 | 357 ft | 69 kts | 250° |
| 2026-05-04 23:00 | 50.03214 | 8.55332 | 357 ft | 26 kts | 250° |
| 2026-05-04 23:00 | 50.03181 | 8.55054 | 352 ft | 26 kts | 270° |
| 2026-05-04 23:00 | 50.03194 | 8.54830 | 347 ft | 0 kts | 278° |
| 2026-05-04 23:01 | 50.03194 | 8.54828 | 346 ft | 2 kts | 278° |
| 2026-05-04 23:01 | 50.03196 | 8.54801 | 345 ft | 0 kts | 277° |
| 2026-05-04 23:01 | 50.03206 | 8.54684 | 353 ft | 15 kts | 277° |
| 2026-05-04 23:01 | 50.03250 | 8.54532 | 353 ft | 16 kts | 315° |
| 2026-05-04 23:02 | 50.03346 | 8.54458 | 352 ft | 15 kts | 340° |
| 2026-05-04 23:02 | 50.03442 | 8.54403 | 357 ft | 13 kts | 339° |
| 2026-05-04 23:02 | 50.03530 | 8.54352 | 354 ft | 14 kts | 339° |
| 2026-05-04 23:02 | 50.03623 | 8.54315 | 348 ft | 13 kts | 2° |
| 2026-05-04 23:03 | 50.03685 | 8.54388 | 355 ft | 8 kts | 17° |
| 2026-05-04 23:03 | 50.03735 | 8.54371 | 358 ft | 7 kts | 341° |
| 2026-05-04 23:03 | 50.03782 | 8.54347 | 354 ft | 8 kts | 340° |
| 2026-05-04 23:03 | 50.03838 | 8.54343 | 359 ft | 6 kts | 31° |
| 2026-05-04 23:04 | 50.03866 | 8.54401 | 360 ft | 7 kts | 58° |
| 2026-05-04 23:04 | 50.03888 | 8.54473 | 360 ft | 7 kts | 66° |
| 2026-05-04 23:04 | 50.03909 | 8.54547 | 361 ft | 8 kts | 66° |
| 2026-05-04 23:04 | 50.03928 | 8.54622 | 362 ft | 8 kts | 68° |
| 2026-05-04 23:05 | 50.03947 | 8.54701 | 357 ft | 8 kts | 73° |
| 2026-05-04 23:05 | 50.03963 | 8.54784 | 359 ft | 8 kts | 73° |
| 2026-05-04 23:05 | 50.03980 | 8.54873 | 359 ft | 9 kts | 72° |
| 2026-05-04 23:05 | 50.04002 | 8.54958 | 365 ft | 9 kts | 66° |
| 2026-05-04 23:06 | 50.04027 | 8.55049 | 366 ft | 10 kts | 68° |
| 2026-05-04 23:06 | 50.04063 | 8.55209 | 361 ft | 18 kts | 71° |
| 2026-05-04 23:06 | 50.04110 | 8.55404 | 363 ft | 22 kts | 69° |
| 2026-05-04 23:06 | 50.04167 | 8.55633 | 361 ft | 23 kts | 69° |
| 2026-05-04 23:07 | 50.03503 | 8.56593 | 362 ft | 1 kts | 251° |
| 2026-05-04 23:07 | 50.03489 | 8.56532 | 362 ft | 18 kts | 251° |
| 2026-05-04 23:07 | 50.03446 | 8.56329 | 363 ft | 22 kts | 251° |
| 2026-05-04 23:07 | 50.03381 | 8.56027 | 359 ft | 33 kts | 251° |
| 2026-05-04 23:08 | 50.03285 | 8.55683 | 357 ft | 36 kts | 240° |
| 2026-05-04 23:08 | 50.03109 | 8.55458 | 353 ft | 24 kts | 174° |
| 2026-05-04 23:08 | 50.03053 | 8.55609 | 352 ft | 16 kts | 118° |
| 2026-05-04 23:08 | 50.03033 | 8.55768 | 356 ft | 15 kts | 76° |
| 2026-05-04 23:09 | 50.03073 | 8.55932 | 357 ft | 17 kts | 68° |
| 2026-05-04 23:09 | 50.03118 | 8.56116 | 358 ft | 21 kts | 70° |
| 2026-05-04 23:09 | 50.03168 | 8.56337 | 357 ft | 26 kts | 70° |
| 2026-05-04 23:09 | 50.03240 | 8.56650 | 360 ft | 34 kts | 69° |
| 2026-05-04 23:10 | 50.03323 | 8.56998 | 363 ft | 34 kts | 70° |
| 2026-05-04 23:10 | 50.03328 | 8.57298 | 367 ft | 22 kts | 118° |
| 2026-05-04 23:10 | 50.03289 | 8.57414 | 367 ft | 0 kts | 116° |
| 2026-05-04 23:10 | 50.03266 | 8.57485 | 363 ft | 20 kts | 117° |
| 2026-05-04 23:11 | 50.03245 | 8.57703 | 364 ft | 20 kts | 59° |
| 2026-05-04 23:11 | 50.03294 | 8.57760 | 367 ft | 0 kts | 27° |
| 2026-05-04 23:11 | 50.03345 | 8.57748 | 367 ft | 3 kts | 307° |
| 2026-05-04 23:11 | 50.03342 | 8.57708 | 366 ft | 10 kts | 264° |
| 2026-05-04 23:12 | 50.03245 | 8.57476 | 363 ft | 22 kts | 227° |
| 2026-05-04 23:12 | 50.03206 | 8.57436 | 366 ft | 0 kts | 209° |
| 2026-05-04 23:12 | 50.03197 | 8.57429 | 365 ft | 0 kts | 206° |
| 2026-05-04 23:13 | 50.03189 | 8.57423 | 365 ft | 5 kts | 207° |
| 2026-05-04 23:13 | 50.03185 | 8.57420 | 364 ft | 0 kts | 207° |